Time;durP1;ratioP1;P1;durP2;ratioP2;P2;SDS_P1;SDS_P2;PMS_P1;PMS_P2;Temp;Humidity;BMP_temperature;BMP_pressure;BME280_temperature;BME280_humidity;BME280_pressure;Samples;Min_cycle;Max_cycle;Signal;HPM_P1;HPM_P2
2022/11/10 05:01:30;;;;;;;4.63;1.50;;;6.80;96.30;;;;;;6027503;22;1701452;-78
2022/11/10 05:03:56;;;;;;;3.37;1.43;;;6.70;96.30;;;;;;6252837;22;20392;-78
2022/11/10 05:06:22;;;;;;;3.20;1.73;;;6.70;96.30;;;;;;6149923;22;20652;-77
2022/11/10 05:08:48;;;;;;;1.57;1.23;;;6.80;96.30;;;;;;6149430;22;20393;-77
2022/11/10 05:11:14;;;;;;;5.03;1.77;;;6.80;96.30;;;;;;6136496;23;20216;-77
2022/11/10 05:13:41;;;;;;;3.13;1.23;;;6.70;96.30;;;;;;6224195;23;20464;-77
2022/11/10 05:16:07;;;;;;;8.00;1.40;;;6.70;96.30;;;;;;6129119;23;20920;-78
2022/11/10 05:18:32;;;;;;;3.20;1.80;;;6.70;96.30;;;;;;6124717;23;20374;-77
2022/11/10 05:20:58;;;;;;;3.27;1.70;;;6.80;96.30;;;;;;6223521;22;20243;-78
2022/11/10 05:23:39;;;;;;;7.00;1.70;;;6.90;96.30;;;;;;6222266;23;20185;-78
2022/11/10 05:26:05;;;;;;;2.67;1.13;;;6.80;96.30;;;;;;6121332;23;20819;-78
2022/11/10 05:28:30;;;;;;;2.93;2.00;;;6.80;96.30;;;;;;6222408;23;20381;-77
2022/11/10 06:39:38;;;;;;;4.77;1.67;;;7.00;96.30;;;;;;6118441;23;21249;-76
2022/11/10 06:42:05;;;;;;;5.23;2.03;;;7.10;96.30;;;;;;6131248;22;20512;-80
2022/11/10 06:44:30;;;;;;;6.60;1.70;;;7.20;96.30;;;;;;6147102;22;20461;-80
2022/11/10 06:46:56;;;;;;;5.80;1.83;;;7.20;96.30;;;;;;6145317;22;20400;-81
2022/11/10 06:49:21;;;;;;;5.90;1.90;;;7.20;96.30;;;;;;6148891;22;20146;-81
2022/11/10 06:51:50;;;;;;;4.07;2.07;;;7.20;96.30;;;;;;6125514;22;20185;-75
2022/11/10 06:54:15;;;;;;;5.13;1.67;;;7.20;96.30;;;;;;6120565;23;20141;-74
2022/11/10 06:56:41;;;;;;;8.80;1.53;;;7.20;96.30;;;;;;6118501;23;20802;-75
2022/11/10 06:59:08;;;;;;;8.70;1.97;;;7.30;96.30;;;;;;6120414;22;20150;-75
2022/11/10 07:01:33;;;;;;;7.83;1.97;;;7.40;96.30;;;;;;6120214;22;20614;-75
2022/11/10 07:03:58;;;;;;;9.07;1.90;;;7.50;96.30;;;;;;6120108;22;20405;-74
2022/11/10 07:06:24;;;;;;;6.40;1.80;;;7.60;96.30;;;;;;6120161;22;20181;-75
2022/11/10 07:08:49;;;;;;;4.63;2.50;;;7.70;96.30;;;;;;6117613;22;20153;-74
2022/11/10 07:11:15;;;;;;;6.10;1.63;;;7.70;96.30;;;;;;6119812;22;20646;-75
2022/11/10 07:13:41;;;;;;;4.77;1.50;;;7.80;96.30;;;;;;6117745;22;20162;-75
2022/11/10 07:16:08;;;;;;;9.03;2.20;;;7.80;96.30;;;;;;6118206;22;20479;-74
2022/11/10 07:18:36;;;;;;;7.20;2.20;;;7.80;96.30;;;;;;6118326;23;20613;-74
2022/11/10 07:21:05;;;;;;;8.20;1.30;;;7.90;96.30;;;;;;6117727;22;20433;-75
2022/11/10 07:23:32;;;;;;;3.93;1.83;;;8.00;96.30;;;;;;6118369;22;20826;-75
2022/11/10 07:26:01;;;;;;;7.10;1.70;;;8.10;96.30;;;;;;6118386;23;20408;-74
2022/11/10 07:28:27;;;;;;;10.43;1.43;;;8.10;96.30;;;;;;6118133;23;20376;-74
2022/11/10 07:30:53;;;;;;;5.67;1.37;;;8.20;96.30;;;;;;6119201;23;20417;-77
2022/11/10 07:33:19;;;;;;;3.63;1.77;;;8.20;96.30;;;;;;6118576;23;20245;-74
2022/11/10 07:35:55;;;;;;;8.30;1.57;;;8.30;96.30;;;;;;6119182;22;20405;-74
2022/11/10 07:38:20;;;;;;;7.40;1.80;;;8.30;96.30;;;;;;6118761;23;20138;-75
2022/11/10 07:40:50;;;;;;;6.30;1.20;;;8.40;96.30;;;;;;6118699;22;20528;-74
2022/11/10 07:43:16;;;;;;;3.17;1.67;;;8.40;96.30;;;;;;6118743;23;20154;-75
2022/11/10 07:45:41;;;;;;;5.33;1.70;;;8.50;96.30;;;;;;6116509;22;20460;-73
2022/11/10 07:48:08;;;;;;;2.00;1.40;;;8.50;96.30;;;;;;6119234;22;20172;-75
2022/11/10 07:50:33;;;;;;;4.60;1.60;;;8.50;96.30;;;;;;6117909;23;20174;-74
2022/11/10 07:53:10;;;;;;;6.67;1.50;;;8.50;96.30;;;;;;6119197;22;20632;-74
2022/11/10 07:55:38;;;;;;;4.03;1.40;;;8.60;96.30;;;;;;6118992;23;20637;-74
2022/11/10 07:58:04;;;;;;;4.10;1.47;;;8.70;96.30;;;;;;6118580;23;20374;-74
2022/11/10 08:00:31;;;;;;;3.57;1.67;;;8.80;96.30;;;;;;6117830;23;20520;-74
2022/11/10 08:03:17;;;;;;;4.03;1.30;;;8.90;96.30;;;;;;6118913;23;20370;-77
2022/11/10 08:05:43;;;;;;;8.00;1.80;;;9.10;96.30;;;;;;6118384;23;20366;-74
2022/11/10 08:08:09;;;;;;;6.13;1.53;;;9.10;96.30;;;;;;6116789;22;20442;-74
2022/11/10 08:10:35;;;;;;;5.90;1.60;;;9.20;96.30;;;;;;6118122;23;20194;-74
2022/11/10 08:13:04;;;;;;;4.50;1.57;;;9.20;96.30;;;;;;6118990;22;20480;-73
2022/11/10 08:15:31;;;;;;;4.50;1.57;;;9.10;96.30;;;;;;6117765;23;20447;-73
2022/11/10 08:18:05;;;;;;;3.07;1.20;;;9.10;96.30;;;;;;6118391;23;20392;-74
2022/11/10 08:20:31;;;;;;;2.33;1.33;;;9.10;96.30;;;;;;6117157;22;20425;-73
2022/11/10 08:23:02;;;;;;;4.67;1.93;;;9.10;96.30;;;;;;6117157;22;20424;-73
2022/11/10 08:25:30;;;;;;;2.50;1.23;;;9.10;96.30;;;;;;6115836;22;20390;-74
2022/11/10 08:28:04;;;;;;;3.53;1.67;;;9.20;96.30;;;;;;6116259;22;20432;-73
2022/11/10 08:30:31;;;;;;;5.67;1.47;;;9.10;96.30;;;;;;6119119;23;20394;-72
2022/11/10 08:32:59;;;;;;;8.57;1.93;;;9.20;96.30;;;;;;6120666;23;20378;-74
2022/11/10 08:35:27;;;;;;;7.17;2.00;;;9.10;96.30;;;;;;6120953;23;20382;-75
2022/11/10 08:37:52;;;;;;;4.07;1.93;;;9.00;96.30;;;;;;6120682;23;20370;-75
2022/11/10 08:40:19;;;;;;;5.60;2.10;;;9.10;96.30;;;;;;6120486;22;20430;-75
2022/11/10 08:42:45;;;;;;;7.17;2.17;;;9.00;96.30;;;;;;6120790;23;20138;-75
2022/11/10 08:45:11;;;;;;;3.93;1.47;;;9.10;96.30;;;;;;6121140;23;20374;-75
2022/11/10 08:47:37;;;;;;;8.03;1.83;;;9.10;96.30;;;;;;6120611;23;20366;-75
2022/11/10 08:50:03;;;;;;;6.63;1.77;;;9.20;96.30;;;;;;6120882;22;20182;-75
2022/11/10 08:52:28;;;;;;;6.00;1.37;;;9.30;96.30;;;;;;6120508;23;20181;-75
2022/11/10 08:54:54;;;;;;;2.70;1.67;;;9.40;96.30;;;;;;6120794;22;20378;-74
2022/11/10 08:57:19;;;;;;;2.60;1.30;;;9.60;96.30;;;;;;6120618;22;20177;-75
2022/11/10 08:59:45;;;;;;;8.30;2.10;;;9.90;96.30;;;;;;6121082;22;20535;-75
2022/11/10 09:02:10;;;;;;;4.77;1.80;;;10.10;96.30;;;;;;6121047;22;20165;-75
2022/11/10 09:04:36;;;;;;;6.07;1.50;;;10.20;96.30;;;;;;6120975;22;20146;-75
2022/11/10 09:07:02;;;;;;;6.23;1.57;;;10.30;96.30;;;;;;6120174;23;20150;-75
2022/11/10 09:09:27;;;;;;;6.90;1.57;;;10.20;96.30;;;;;;6120899;22;20374;-75
2022/11/10 09:11:53;;;;;;;8.63;1.90;;;10.10;96.30;;;;;;6120971;22;20658;-75
2022/11/10 09:14:19;;;;;;;2.80;1.23;;;10.00;96.30;;;;;;6120762;23;20188;-75
2022/11/10 09:16:44;;;;;;;3.93;1.50;;;9.90;96.30;;;;;;6120173;23;20180;-75
2022/11/10 09:19:10;;;;;;;5.00;1.70;;;9.80;96.30;;;;;;6120745;22;20382;-75
2022/11/10 09:21:35;;;;;;;3.70;1.97;;;9.80;96.30;;;;;;6120852;22;20252;-75
2022/11/10 09:24:01;;;;;;;10.60;1.30;;;10.00;96.30;;;;;;6118676;22;20164;-75
2022/11/10 09:26:26;;;;;;;10.17;1.70;;;10.20;96.30;;;;;;6119612;22;20233;-75
2022/11/10 09:28:52;;;;;;;6.27;1.70;;;10.30;96.30;;;;;;6120065;22;20474;-75
2022/11/10 09:31:17;;;;;;;10.83;2.00;;;10.40;96.30;;;;;;6120698;22;20223;-75
2022/11/10 09:33:43;;;;;;;8.80;1.80;;;10.50;96.30;;;;;;6120775;22;20157;-75
2022/11/10 09:36:08;;;;;;;8.40;1.80;;;10.50;96.30;;;;;;6120642;22;20180;-75
2022/11/10 09:38:34;;;;;;;3.83;1.23;;;10.60;96.30;;;;;;6119915;22;20154;-75
2022/11/10 09:41:03;;;;;;;5.07;1.50;;;10.50;96.30;;;;;;6120307;23;20197;-75
2022/11/10 09:44:00;;;;;;;5.03;1.97;;;10.60;96.30;;;;;;6121752;23;20223;-75
2022/11/10 09:46:38;;;;;;;7.03;1.70;;;10.50;96.30;;;;;;6121763;23;20360;-75
2022/11/10 09:49:34;;;;;;;5.70;1.60;;;10.40;96.30;;;;;;6121547;23;20365;-75
2022/11/10 09:52:01;;;;;;;7.23;1.80;;;10.30;96.30;;;;;;6121713;23;20405;-75
2022/11/10 09:54:52;;;;;;;8.03;1.90;;;10.50;96.30;;;;;;6121669;23;20397;-75
2022/11/10 09:57:22;;;;;;;7.83;1.47;;;10.40;96.30;;;;;;6121211;23;20836;-74
2022/11/10 09:59:48;;;;;;;8.60;2.30;;;10.30;96.30;;;;;;6121705;23;20417;-73
2022/11/10 10:02:30;;;;;;;5.00;1.90;;;10.40;96.30;;;;;;6121712;22;20385;-73
2022/11/10 10:05:14;;;;;;;5.10;1.50;;;10.40;96.30;;;;;;6121769;23;20475;-76
2022/11/10 10:08:00;;;;;;;7.40;2.23;;;10.40;96.30;;;;;;6119641;22;20468;-73
2022/11/10 10:10:32;;;;;;;9.20;1.47;;;10.50;96.30;;;;;;6121561;23;20365;-74
2022/11/10 10:13:19;;;;;;;3.00;1.17;;;10.70;96.30;;;;;;6120348;22;20462;-73
2022/11/10 10:16:05;;;;;;;8.27;1.97;;;11.10;96.30;;;;;;6121805;22;20839;-73
2022/11/10 10:18:39;;;;;;;2.53;1.00;;;11.80;96.30;;;;;;6121125;22;20362;-73
2022/11/10 10:21:27;;;;;;;7.27;1.40;;;12.60;96.30;;;;;;6121460;23;20425;-73
2022/11/10 10:23:54;;;;;;;1.87;1.10;;;12.50;96.30;;;;;;6120256;22;20469;-74
2022/11/10 10:26:27;;;;;;;4.33;1.60;;;12.80;96.30;;;;;;6121658;23;20377;-73
2022/11/10 10:28:54;;;;;;;4.07;1.57;;;13.60;96.30;;;;;;6120928;23;20381;-73
2022/11/10 10:31:24;;;;;;;5.50;1.53;;;13.30;96.30;;;;;;6121497;23;20397;-74
2022/11/10 10:33:51;;;;;;;9.10;1.63;;;12.90;96.30;;;;;;6120047;22;20394;-73
2022/11/10 10:36:28;;;;;;;3.57;1.23;;;13.10;96.30;;;;;;6121584;23;20454;-75
2022/11/10 10:39:03;;;;;;;9.23;1.70;;;12.60;96.30;;;;;;6121073;23;20373;-73
2022/11/10 10:41:31;;;;;;;6.70;2.20;;;12.10;96.30;;;;;;6121287;23;20512;-73
2022/11/10 10:44:00;;;;;;;6.70;1.37;;;11.40;96.30;;;;;;6121611;23;20408;-74
2022/11/10 10:46:28;;;;;;;5.00;1.20;;;11.70;96.30;;;;;;6121397;23;20706;-73
2022/11/10 10:49:16;;;;;;;7.30;1.60;;;11.70;96.30;;;;;;6120929;23;20381;-74
2022/11/10 10:51:41;;;;;;;5.03;1.50;;;11.70;96.30;;;;;;6121208;23;20854;-74
2022/11/10 10:54:31;;;;;;;8.57;1.77;;;12.20;96.30;;;;;;6121584;22;20381;-75
2022/11/10 10:57:23;;;;;;;8.30;1.67;;;12.60;96.30;;;;;;6120910;23;20233;-73
2022/11/10 10:59:49;;;;;;;6.70;1.40;;;12.80;96.30;;;;;;6121417;22;20414;-73
2022/11/10 11:02:30;;;;;;;12.43;2.30;;;12.50;96.30;;;;;;6121025;23;20837;-73
2022/11/10 11:05:14;;;;;;;2.60;1.33;;;12.30;96.30;;;;;;6121198;23;20374;-73
2022/11/10 11:07:40;;;;;;;7.70;1.53;;;12.10;96.30;;;;;;6120592;23;20357;-73
2022/11/10 11:10:33;;;;;;;7.03;1.63;;;11.90;96.30;;;;;;6121039;23;20381;-74
2022/11/10 11:13:13;;;;;;;14.30;1.77;;;12.30;96.30;;;;;;6120179;23;20515;-74
2022/11/10 11:15:39;;;;;;;4.87;1.70;;;12.70;96.30;;;;;;6120607;23;20385;-73
2022/11/10 11:18:19;;;;;;;8.53;2.43;;;12.70;96.30;;;;;;6119589;22;21042;-76
2022/11/10 11:20:59;;;;;;;5.80;1.37;;;12.80;96.30;;;;;;6118884;23;20191;-75
2022/11/10 11:23:53;;;;;;;9.47;1.50;;;12.30;96.30;;;;;;6119042;22;20385;-75
2022/11/10 11:26:31;;;;;;;6.97;1.80;;;11.90;96.30;;;;;;6118691;23;20366;-75
2022/11/10 11:29:19;;;;;;;4.57;1.40;;;11.60;96.30;;;;;;6119451;23;20366;-76
2022/11/10 12:48:33;;;;;;;7.40;1.83;;;11.60;96.30;;;;;;6179601;23;20385;-74
2022/11/10 12:55:13;;;;;;;3.80;1.10;;;11.40;96.30;;;;;;6088822;23;20493;-74
2022/11/10 12:58:17;;;;;;;6.60;1.60;;;11.40;96.30;;;;;;6090037;23;20406;-74
2022/11/10 13:00:44;;;;;;;4.60;1.80;;;11.40;96.30;;;;;;6015870;23;20450;-73
2022/11/10 13:03:30;;;;;;;5.63;1.53;;;11.40;96.30;;;;;;6033091;23;20406;-73
2022/11/10 13:06:01;;;;;;;6.93;1.60;;;11.20;96.30;;;;;;6067748;23;20532;-72
2022/11/10 13:08:34;;;;;;;3.60;1.20;;;11.20;96.30;;;;;;6088779;23;20828;-73
2022/11/10 13:11:12;;;;;;;9.10;1.53;;;11.10;96.30;;;;;;6088034;23;20457;-75
2022/11/10 13:13:43;;;;;;;6.30;1.47;;;11.10;96.30;;;;;;6088678;23;20366;-73
2022/11/10 13:16:10;;;;;;;7.07;1.60;;;11.00;96.30;;;;;;6086493;23;20884;-73
2022/11/10 13:18:35;;;;;;;4.00;1.97;;;11.00;96.30;;;;;;6087863;23;20883;-73
2022/11/10 13:21:01;;;;;;;5.73;1.60;;;11.20;96.30;;;;;;6085770;23;20434;-73
2022/11/10 13:23:30;;;;;;;5.23;2.13;;;11.50;96.30;;;;;;6088454;23;20595;-74
2022/11/10 13:26:00;;;;;;;5.70;1.60;;;11.70;96.30;;;;;;6088442;23;20207;-72
2022/11/10 13:28:47;;;;;;;4.50;1.90;;;12.00;96.30;;;;;;6088200;23;20426;-72
2022/11/10 13:31:29;;;;;;;4.50;1.40;;;12.00;96.30;;;;;;6088464;23;20480;-74
2022/11/10 13:34:01;;;;;;;9.07;1.87;;;12.00;96.30;;;;;;6088697;23;20687;-73
2022/11/10 13:36:44;;;;;;;2.17;1.30;;;11.90;96.30;;;;;;6088802;23;20379;-74
2022/11/10 13:39:18;;;;;;;6.00;1.83;;;11.70;96.30;;;;;;6089160;23;20366;-73
2022/11/10 13:42:03;;;;;;;4.67;1.30;;;11.40;96.30;;;;;;6088836;23;20402;-73
2022/11/10 13:44:41;;;;;;;3.23;1.37;;;11.20;96.30;;;;;;6089065;23;20438;-72
2022/11/10 13:47:06;;;;;;;5.07;1.70;;;11.00;96.30;;;;;;6086352;23;20778;-73
2022/11/10 13:49:38;;;;;;;6.03;1.57;;;11.00;96.30;;;;;;6086936;23;20371;-74
2022/11/10 13:52:15;;;;;;;8.50;1.67;;;11.00;96.30;;;;;;6086264;23;20185;-73
2022/11/10 13:55:02;;;;;;;8.93;1.53;;;11.00;96.30;;;;;;6089593;23;20813;-73
2022/11/10 13:57:37;;;;;;;3.20;1.20;;;11.10;96.30;;;;;;6088023;23;20395;-74
2022/11/10 14:00:17;;;;;;;7.87;1.70;;;11.10;96.30;;;;;;6087640;23;20422;-73
2022/11/10 14:02:57;;;;;;;8.23;1.70;;;11.10;96.30;;;;;;6088584;23;20377;-73
2022/11/10 14:05:30;;;;;;;6.77;1.53;;;11.00;96.30;;;;;;6089162;23;20365;-72
2022/11/10 14:08:07;;;;;;;5.33;1.87;;;10.90;96.30;;;;;;6087909;23;20378;-72
2022/11/10 14:10:45;;;;;;;3.53;1.53;;;10.70;96.30;;;;;;6088630;23;20394;-74
2022/11/10 14:13:19;;;;;;;2.60;1.60;;;10.50;96.30;;;;;;6087870;23;20362;-74
2022/11/10 14:15:47;;;;;;;5.07;2.03;;;10.50;96.30;;;;;;6089436;23;20366;-76
2022/11/10 14:18:22;;;;;;;3.90;1.67;;;10.40;96.30;;;;;;6087599;23;20374;-76
2022/11/10 14:20:56;;;;;;;6.77;1.73;;;10.40;96.30;;;;;;6088477;23;20930;-77
2022/11/10 14:23:44;;;;;;;6.43;1.80;;;10.30;96.30;;;;;;6087963;23;20359;-73
2022/11/10 14:26:34;;;;;;;7.40;1.63;;;10.30;96.30;;;;;;6089043;23;20359;-73
2022/11/10 14:29:39;;;;;;;8.97;1.53;;;10.30;96.30;;;;;;6088930;23;20698;-73
2022/11/10 14:32:18;;;;;;;3.33;1.53;;;10.30;96.30;;;;;;6125414;23;20411;-75
2022/11/10 14:34:50;;;;;;;4.43;1.63;;;10.30;96.30;;;;;;6150645;23;20376;-74
2022/11/10 14:37:22;;;;;;;6.00;1.37;;;10.30;96.30;;;;;;6112817;23;20452;-73
2022/11/10 14:39:50;;;;;;;5.23;1.83;;;10.30;96.30;;;;;;6088817;23;20933;-74
2022/11/10 14:42:22;;;;;;;4.90;2.00;;;10.20;96.30;;;;;;6091166;23;20719;-73
2022/11/10 14:44:47;;;;;;;5.43;1.53;;;10.20;96.30;;;;;;6091695;23;20363;-73
2022/11/10 14:47:29;;;;;;;11.10;1.97;;;10.20;96.30;;;;;;6091710;23;20682;-73
2022/11/10 14:50:42;;;;;;;5.77;1.80;;;10.10;96.30;;;;;;6090774;23;20157;-73
2022/11/10 14:53:39;;;;;;;5.77;1.90;;;10.10;96.30;;;;;;6091859;23;20891;-73
2022/11/10 14:56:12;;;;;;;7.03;1.83;;;9.90;96.30;;;;;;6091480;23;20398;-73
2022/11/10 14:58:40;;;;;;;7.40;2.23;;;9.70;96.30;;;;;;6089512;23;20378;-73
2022/11/10 15:01:21;;;;;;;7.63;2.17;;;9.60;96.30;;;;;;6091297;23;20437;-73
2022/11/10 15:03:47;;;;;;;4.67;2.10;;;9.50;96.30;;;;;;6088915;23;20375;-73
2022/11/10 15:06:13;;;;;;;6.53;1.40;;;9.50;96.30;;;;;;6092027;23;20379;-73
2022/11/10 15:08:39;;;;;;;5.43;1.97;;;9.40;96.30;;;;;;6091217;23;20390;-73
2022/11/10 15:11:06;;;;;;;4.40;1.77;;;9.30;96.30;;;;;;6090223;23;20519;-75
2022/11/10 15:13:37;;;;;;;6.40;2.33;;;9.20;96.30;;;;;;6092556;23;20373;-74
2022/11/10 15:16:21;;;;;;;9.53;2.53;;;9.20;96.30;;;;;;6090843;23;20520;-74
2022/11/10 15:18:49;;;;;;;8.23;2.00;;;9.20;96.30;;;;;;6089819;23;20382;-74
2022/11/10 15:21:17;;;;;;;7.20;1.40;;;9.10;96.30;;;;;;6091970;23;20426;-73
2022/11/10 15:23:46;;;;;;;9.40;2.00;;;9.10;96.30;;;;;;6089122;23;20410;-73
2022/11/10 15:26:38;;;;;;;5.77;1.77;;;9.00;96.30;;;;;;6091709;23;20367;-73
2022/11/10 15:29:05;;;;;;;8.03;2.50;;;8.90;96.30;;;;;;6093745;23;20442;-76
2022/11/10 15:31:32;;;;;;;7.27;2.00;;;8.80;96.30;;;;;;6092008;23;20395;-75
2022/11/10 15:34:03;;;;;;;4.67;1.90;;;8.70;96.30;;;;;;6092030;23;20868;-74
2022/11/10 15:36:38;;;;;;;8.00;3.20;;;8.60;96.30;;;;;;6090769;23;20444;-75
2022/11/10 15:39:14;;;;;;;5.87;2.00;;;8.60;96.30;;;;;;6092135;23;20385;-74
2022/11/10 15:41:46;;;;;;;9.00;2.37;;;8.60;96.30;;;;;;6092032;23;20885;-76
2022/11/10 15:44:18;;;;;;;6.47;1.87;;;8.40;96.30;;;;;;6091096;23;20386;-75
2022/11/10 15:46:44;;;;;;;9.57;2.03;;;8.40;96.30;;;;;;6091626;23;20382;-74
2022/11/10 15:49:34;;;;;;;10.77;2.40;;;8.40;96.30;;;;;;6091970;23;20761;-75
2022/11/10 15:52:02;;;;;;;6.17;2.07;;;8.50;96.30;;;;;;6091633;23;20508;-76
2022/11/10 15:54:34;;;;;;;6.50;1.93;;;8.40;96.30;;;;;;6089981;23;20433;-75
2022/11/10 15:56:59;;;;;;;10.30;2.17;;;8.60;96.30;;;;;;6091441;23;20424;-75
2022/11/10 15:59:25;;;;;;;7.03;2.17;;;8.50;96.30;;;;;;6091736;23;21026;-75
2022/11/10 16:01:51;;;;;;;3.77;1.70;;;8.40;96.30;;;;;;6091993;23;20162;-74
2022/11/10 16:04:16;;;;;;;8.30;3.30;;;8.30;96.30;;;;;;6092015;23;20147;-75
2022/11/10 16:06:42;;;;;;;7.67;2.20;;;8.30;96.30;;;;;;6089748;23;20146;-74
2022/11/10 16:09:11;;;;;;;2.60;1.70;;;8.20;96.30;;;;;;6090202;23;20241;-75
2022/11/10 16:11:37;;;;;;;8.87;3.93;;;8.20;96.30;;;;;;6091119;23;20182;-74
2022/11/10 16:14:04;;;;;;;8.13;2.00;;;8.20;96.30;;;;;;6090176;23;20395;-74
2022/11/10 16:16:30;;;;;;;7.43;2.37;;;8.10;96.30;;;;;;6091789;23;20390;-75
2022/11/10 16:18:55;;;;;;;11.97;2.20;;;8.00;96.30;;;;;;6091107;23;20378;-75
2022/11/10 16:21:24;;;;;;;6.77;2.20;;;7.90;96.30;;;;;;6091514;23;20595;-74
2022/11/10 16:23:50;;;;;;;4.37;1.93;;;7.90;96.30;;;;;;6091517;23;20485;-75
2022/11/10 16:26:20;;;;;;;8.20;1.93;;;7.80;96.30;;;;;;6091361;23;20454;-75
2022/11/10 16:28:46;;;;;;;6.50;3.20;;;7.90;96.30;;;;;;6091216;23;20375;-74
2022/11/10 16:31:14;;;;;;;9.97;3.00;;;7.90;96.30;;;;;;6091609;23;20398;-75
2022/11/10 16:33:40;;;;;;;34.13;19.57;;;8.00;96.30;;;;;;6088711;23;20394;-74
2022/11/10 16:36:21;;;;;;;16.43;8.27;;;7.90;96.30;;;;;;6091453;23;20421;-74
2022/11/10 16:38:47;;;;;;;14.87;8.00;;;7.90;96.30;;;;;;6089619;23;20383;-74
2022/11/10 16:41:15;;;;;;;5.87;1.93;;;7.90;96.30;;;;;;6091429;23;20876;-74
2022/11/10 16:43:41;;;;;;;6.87;2.20;;;7.90;96.30;;;;;;6091823;23;20158;-75
2022/11/10 16:46:16;;;;;;;7.50;2.57;;;7.90;96.30;;;;;;6091600;23;20374;-75
2022/11/10 16:48:44;;;;;;;7.67;2.90;;;7.70;96.30;;;;;;6091038;23;20150;-75
2022/11/10 16:51:10;;;;;;;7.20;1.87;;;7.70;96.30;;;;;;6090627;23;20453;-75
2022/11/10 16:53:37;;;;;;;6.83;2.30;;;7.60;96.30;;;;;;6091750;23;20381;-75
2022/11/10 16:56:03;;;;;;;5.67;1.90;;;7.70;96.30;;;;;;6091222;23;20906;-74
2022/11/10 16:58:29;;;;;;;5.10;2.20;;;7.60;96.30;;;;;;6089438;23;20391;-74
2022/11/10 17:00:59;;;;;;;15.33;3.57;;;7.60;96.30;;;;;;6091380;23;20237;-74
2022/11/10 17:03:38;;;;;;;9.57;3.10;;;7.50;96.30;;;;;;6090164;23;20189;-74
2022/11/10 17:06:04;;;;;;;9.83;2.93;;;7.50;96.30;;;;;;6091498;23;20396;-74
2022/11/10 17:08:32;;;;;;;7.30;2.73;;;7.50;96.30;;;;;;6090586;23;20915;-74
2022/11/10 17:10:57;;;;;;;8.37;2.70;;;7.50;96.30;;;;;;6091491;23;20170;-73
2022/11/10 17:13:23;;;;;;;5.13;2.87;;;7.60;96.30;;;;;;6091391;23;20408;-73
2022/11/10 17:15:52;;;;;;;5.00;2.20;;;7.50;96.30;;;;;;6091519;23;20155;-74
2022/11/10 17:18:22;;;;;;;10.80;3.00;;;7.50;96.30;;;;;;6108168;23;20375;-73
2022/11/10 17:23:31;;;;;;;14.13;2.23;;;7.60;96.30;;;;;;6127902;23;20469;-74
2022/11/10 17:25:56;;;;;;;9.73;2.17;;;7.50;96.30;;;;;;6121165;23;20397;-73
2022/11/10 17:28:22;;;;;;;7.00;2.20;;;7.50;96.30;;;;;;6118865;22;20462;-73
2022/11/10 17:30:48;;;;;;;13.67;2.50;;;7.40;96.30;;;;;;6121528;22;20555;-73
2022/11/10 17:33:13;;;;;;;11.10;3.73;;;7.50;96.30;;;;;;6121085;22;20225;-73
2022/11/10 17:35:44;;;;;;;4.80;2.30;;;7.50;96.30;;;;;;6121354;22;20177;-73
2022/11/10 17:38:13;;;;;;;5.70;2.70;;;7.40;96.30;;;;;;6121066;23;20272;-72
2022/11/10 17:40:41;;;;;;;11.03;2.63;;;7.30;96.30;;;;;;6120405;23;20510;-73
2022/11/10 17:43:12;;;;;;;16.90;5.90;;;7.30;96.30;;;;;;6119367;22;20408;-73
2022/11/10 17:45:38;;;;;;;7.10;3.17;;;7.20;96.30;;;;;;6121666;23;20438;-73
2022/11/10 17:48:04;;;;;;;13.37;3.07;;;7.10;96.30;;;;;;6135813;22;20413;-73
2022/11/10 17:50:31;;;;;;;6.70;2.77;;;7.00;96.30;;;;;;6119380;22;20385;-74
2022/11/10 17:52:59;;;;;;;5.77;2.43;;;7.00;96.30;;;;;;6119146;22;20157;-73
2022/11/10 17:55:26;;;;;;;6.83;2.57;;;7.00;96.30;;;;;;6121240;23;20374;-72
2022/11/10 17:57:52;;;;;;;6.80;2.20;;;7.10;96.30;;;;;;6121081;23;20377;-74
2022/11/10 18:00:19;;;;;;;11.17;3.10;;;7.10;96.30;;;;;;6120752;23;20464;-72
2022/11/10 18:02:46;;;;;;;6.43;1.77;;;7.10;96.30;;;;;;6120359;22;20373;-73
2022/11/10 18:05:13;;;;;;;11.90;2.37;;;7.10;96.30;;;;;;6122671;23;20373;-72
2022/11/10 18:07:39;;;;;;;8.70;2.30;;;7.10;96.30;;;;;;6121919;23;20472;-72
2022/11/10 18:10:07;;;;;;;9.90;2.10;;;7.10;96.30;;;;;;6121666;22;20377;-73
2022/11/10 18:15:30;;;;;;;10.00;3.67;;;7.00;96.30;;;;;;6122842;23;20480;-73
2022/11/10 18:17:56;;;;;;;4.60;2.80;;;7.10;96.30;;;;;;6122289;23;20950;-73
2022/11/10 18:20:22;;;;;;;24.33;9.10;;;7.00;96.30;;;;;;6122071;23;20432;-73
2022/11/10 18:22:47;;;;;;;7.80;3.20;;;7.00;96.30;;;;;;6123057;22;20370;-73
2022/11/10 18:25:13;;;;;;;8.37;2.90;;;7.00;96.30;;;;;;6120850;22;20186;-74
2022/11/10 18:27:38;;;;;;;9.40;3.17;;;7.10;96.30;;;;;;6122792;22;20548;-73
2022/11/10 18:30:04;;;;;;;8.30;2.03;;;7.10;96.30;;;;;;6124059;22;20228;-73
2022/11/10 18:34:58;;;;;;;8.77;2.20;;;7.00;96.30;;;;;;6122927;23;20437;-73
2022/11/10 18:37:23;;;;;;;13.20;3.90;;;7.10;96.30;;;;;;6122390;23;20430;-73
2022/11/10 18:39:49;;;;;;;7.40;2.83;;;7.00;96.30;;;;;;6121297;23;20185;-73
2022/11/10 18:42:14;;;;;;;6.17;1.97;;;6.90;96.30;;;;;;6096512;23;20170;-73
2022/11/10 18:44:40;;;;;;;12.83;1.97;;;6.90;96.30;;;;;;6092129;23;20146;-73
2022/11/10 18:47:07;;;;;;;4.23;1.73;;;6.70;96.30;;;;;;6091696;23;20151;-74
2022/11/10 18:49:32;;;;;;;10.83;2.40;;;6.70;96.30;;;;;;6091664;23;20222;-73
2022/11/10 18:51:59;;;;;;;6.03;2.67;;;6.60;96.30;;;;;;6090383;23;20430;-73
2022/11/10 18:54:25;;;;;;;13.77;6.87;;;6.80;96.30;;;;;;6090363;23;20150;-72
2022/11/10 18:56:50;;;;;;;11.30;2.60;;;6.80;96.30;;;;;;6090234;23;20709;-72
2022/11/10 18:59:16;;;;;;;5.33;2.27;;;6.80;96.30;;;;;;6090473;23;20389;-73
2022/11/10 19:01:41;;;;;;;8.47;2.33;;;6.80;96.30;;;;;;6091234;23;20269;-73
2022/11/10 19:04:07;;;;;;;5.73;2.23;;;6.60;96.30;;;;;;6091268;23;20221;-73
2022/11/10 19:06:34;;;;;;;6.73;2.73;;;6.60;96.30;;;;;;6092036;23;20211;-75
2022/11/10 19:09:00;;;;;;;11.30;4.83;;;6.60;96.30;;;;;;6091968;23;20605;-75
2022/11/10 19:11:26;;;;;;;15.13;4.70;;;6.70;96.30;;;;;;6091981;23;20720;-74
2022/11/10 19:13:52;;;;;;;18.20;5.80;;;6.70;96.30;;;;;;6091984;23;20375;-74
2022/11/10 19:16:18;;;;;;;13.43;3.97;;;6.60;96.30;;;;;;6090482;23;20165;-74
2022/11/10 19:18:44;;;;;;;10.30;2.50;;;6.80;96.30;;;;;;6091809;23;20233;-75
2022/11/10 19:21:16;;;;;;;10.87;4.03;;;7.00;96.30;;;;;;6090819;23;20422;-75
2022/11/10 19:23:41;;;;;;;7.63;5.23;;;7.00;96.30;;;;;;6090392;23;20371;-75
2022/11/10 19:26:18;;;;;;;12.40;4.50;;;6.90;96.30;;;;;;6089859;23;20437;-75
2022/11/10 19:28:44;;;;;;;3.93;2.20;;;6.90;96.30;;;;;;6089727;23;20142;-74
2022/11/10 19:31:12;;;;;;;6.77;2.23;;;7.10;96.30;;;;;;6088249;23;21027;-73
2022/11/10 19:33:41;;;;;;;11.20;2.80;;;7.20;96.30;;;;;;6090096;23;20379;-74
2022/11/10 19:36:10;;;;;;;10.67;2.47;;;7.20;96.30;;;;;;6089692;23;20399;-75
2022/11/10 19:38:36;;;;;;;6.87;2.80;;;7.20;96.30;;;;;;6087554;23;20469;-74
2022/11/10 19:41:14;;;;;;;8.20;3.03;;;7.20;96.30;;;;;;6088299;23;20927;-75
2022/11/10 19:43:40;;;;;;;8.93;3.07;;;7.20;96.30;;;;;;6090398;23;20139;-75
2022/11/10 19:46:10;;;;;;;11.70;5.47;;;7.20;96.30;;;;;;6090258;23;20444;-74
2022/11/10 19:48:36;;;;;;;12.03;3.93;;;7.40;96.30;;;;;;6088248;23;20192;-74
2022/11/10 19:51:03;;;;;;;6.77;2.87;;;7.30;96.30;;;;;;6089390;23;20493;-75
2022/11/10 19:53:30;;;;;;;9.77;2.20;;;7.40;96.30;;;;;;6088072;23;20256;-74
2022/11/10 19:56:00;;;;;;;10.93;4.47;;;7.40;96.30;;;;;;6089233;23;20390;-75
2022/11/10 19:58:26;;;;;;;12.27;4.03;;;7.50;96.30;;;;;;6088206;23;20437;-75
2022/11/10 20:00:53;;;;;;;5.50;2.07;;;7.50;96.30;;;;;;6089338;23;20430;-75
2022/11/10 20:03:19;;;;;;;9.07;2.53;;;7.40;96.30;;;;;;6088907;23;20154;-75
2022/11/10 20:05:45;;;;;;;9.23;2.30;;;7.40;96.30;;;;;;6089238;23;20844;-75
2022/11/10 20:08:12;;;;;;;7.20;1.60;;;7.40;96.30;;;;;;6088527;23;20381;-75
2022/11/10 20:10:44;;;;;;;9.20;2.37;;;7.40;96.30;;;;;;6089489;23;20616;-75
2022/11/10 20:13:11;;;;;;;15.10;2.57;;;7.30;96.30;;;;;;6089297;23;20385;-75
2022/11/10 20:15:41;;;;;;;8.73;2.70;;;7.40;96.30;;;;;;6089144;23;20386;-75
2022/11/10 20:18:08;;;;;;;5.50;1.70;;;7.40;96.30;;;;;;6086849;23;20371;-74
2022/11/10 20:20:36;;;;;;;4.93;1.77;;;7.50;96.30;;;;;;6089220;23;20426;-75
2022/11/10 20:23:03;;;;;;;14.37;4.80;;;7.40;96.30;;;;;;6089387;23;20382;-75
2022/11/10 20:25:29;;;;;;;7.93;2.43;;;7.40;96.30;;;;;;6089111;23;20410;-75
2022/11/10 20:27:55;;;;;;;9.87;4.23;;;7.60;96.30;;;;;;6088554;23;20437;-75
2022/11/10 20:30:20;;;;;;;5.57;3.30;;;7.50;96.30;;;;;;6089152;23;20301;-75
2022/11/10 20:32:45;;;;;;;15.57;7.30;;;7.40;96.30;;;;;;6089147;23;20762;-75
2022/11/10 20:35:11;;;;;;;9.20;4.23;;;7.30;96.30;;;;;;6087516;23;20551;-75
2022/11/10 20:37:37;;;;;;;10.93;3.03;;;7.20;96.30;;;;;;6086475;23;20154;-75
2022/11/10 20:40:06;;;;;;;6.23;2.50;;;7.20;96.30;;;;;;6087754;23;20503;-75
2022/11/10 20:42:32;;;;;;;26.00;14.43;;;7.20;96.30;;;;;;6087528;23;20179;-75
2022/11/10 20:44:58;;;;;;;12.77;7.33;;;7.30;96.30;;;;;;6088566;23;20866;-75
2022/11/10 20:47:24;;;;;;;9.97;4.83;;;7.40;96.30;;;;;;6088363;23;20158;-75